sensor_id;sensor_type;location;lat;lon;timestamp;pressure;altitude;pressure_sealevel;temperature
67501;BMP180;54349;52.528;19.760;2022-09-02T00:01:45;101316.60;;;22.50
67501;BMP180;54349;52.528;19.760;2022-09-02T00:04:24;101314.60;;;22.60
67501;BMP180;54349;52.528;19.760;2022-09-02T00:06:53;101314.00;;;22.60
67501;BMP180;54349;52.528;19.760;2022-09-02T00:09:24;101314.40;;;22.70
67501;BMP180;54349;52.528;19.760;2022-09-02T00:11:54;101312.00;;;22.70
67501;BMP180;54349;52.528;19.760;2022-09-02T00:14:29;101315.80;;;22.50
67501;BMP180;54349;52.528;19.760;2022-09-02T00:16:57;101318.40;;;22.50
67501;BMP180;54349;52.528;19.760;2022-09-02T00:19:29;101310.40;;;22.50
67501;BMP180;54349;52.528;19.760;2022-09-02T00:22:00;101313.00;;;22.58
67501;BMP180;54349;52.528;19.760;2022-09-02T00:24:30;101310.20;;;22.60
67501;BMP180;54349;52.528;19.760;2022-09-02T00:26:58;101307.80;;;22.60
67501;BMP180;54349;52.528;19.760;2022-09-02T00:29:27;101308.40;;;22.50
67501;BMP180;54349;52.528;19.760;2022-09-02T00:31:56;101306.00;;;22.40
67501;BMP180;54349;52.528;19.760;2022-09-02T00:34:25;101308.80;;;22.40
67501;BMP180;54349;52.528;19.760;2022-09-02T00:36:53;101308.60;;;22.50
67501;BMP180;54349;52.528;19.760;2022-09-02T00:39:21;101308.00;;;22.50
67501;BMP180;54349;52.528;19.760;2022-09-02T00:41:50;101307.40;;;22.56
67501;BMP180;54349;52.528;19.760;2022-09-02T00:44:19;101306.80;;;22.60
67501;BMP180;54349;52.528;19.760;2022-09-02T00:46:47;101303.60;;;22.40
67501;BMP180;54349;52.528;19.760;2022-09-02T00:49:27;101303.40;;;22.30
67501;BMP180;54349;52.528;19.760;2022-09-02T00:52:16;101306.40;;;22.40
67501;BMP180;54349;52.528;19.760;2022-09-02T00:55:01;101306.80;;;22.40
67501;BMP180;54349;52.528;19.760;2022-09-02T00:57:43;101305.00;;;22.46
67501;BMP180;54349;52.528;19.760;2022-09-02T01:00:18;101305.40;;;22.50
67501;BMP180;54349;52.528;19.760;2022-09-02T01:02:55;101303.60;;;22.40
67501;BMP180;54349;52.528;19.760;2022-09-02T01:05:26;101304.20;;;22.22
67501;BMP180;54349;52.528;19.760;2022-09-02T01:07:58;101304.40;;;22.30
67501;BMP180;54349;52.528;19.760;2022-09-02T01:10:31;101301.20;;;22.30
67501;BMP180;54349;52.528;19.760;2022-09-02T01:13:09;101302.00;;;22.38
67501;BMP180;54349;52.528;19.760;2022-09-02T01:15:52;101303.80;;;22.40
67501;BMP180;54349;52.528;19.760;2022-09-02T01:18:27;101308.40;;;22.40
67501;BMP180;54349;52.528;19.760;2022-09-02T01:20:58;101307.20;;;22.32
67501;BMP180;54349;52.528;19.760;2022-09-02T01:23:29;101305.20;;;22.20
67501;BMP180;54349;52.528;19.760;2022-09-02T01:26:03;101310.40;;;22.20
67501;BMP180;54349;52.528;19.760;2022-09-02T01:28:33;101311.80;;;22.30
67501;BMP180;54349;52.528;19.760;2022-09-02T01:31:01;101313.00;;;22.30
67501;BMP180;54349;52.528;19.760;2022-09-02T01:33:30;101311.60;;;22.30
67501;BMP180;54349;52.528;19.760;2022-09-02T01:35:58;101313.00;;;22.38
67501;BMP180;54349;52.528;19.760;2022-09-02T01:38:28;101313.80;;;22.34
67501;BMP180;54349;52.528;19.760;2022-09-02T01:40:57;101313.20;;;22.20
67501;BMP180;54349;52.528;19.760;2022-09-02T01:43:27;101316.80;;;22.20
67501;BMP180;54349;52.528;19.760;2022-09-02T01:45:57;101316.60;;;22.20
67501;BMP180;54349;52.528;19.760;2022-09-02T01:48:28;101319.40;;;22.20
67501;BMP180;54349;52.528;19.760;2022-09-02T01:51:02;101316.60;;;22.30
67501;BMP180;54349;52.528;19.760;2022-09-02T01:53:31;101318.40;;;22.30
67501;BMP180;54349;52.528;19.760;2022-09-02T01:56:00;101322.60;;;22.30
67501;BMP180;54349;52.528;19.760;2022-09-02T01:58:30;101321.80;;;22.24
67501;BMP180;54349;52.528;19.760;2022-09-02T02:00:58;101317.00;;;22.10
67501;BMP180;54349;52.528;19.760;2022-09-02T02:03:26;101316.40;;;22.10
67501;BMP180;54349;52.528;19.760;2022-09-02T02:05:57;101318.60;;;22.20
67501;BMP180;54349;52.528;19.760;2022-09-02T02:08:26;101317.80;;;22.20
67501;BMP180;54349;52.528;19.760;2022-09-02T02:10:54;101318.80;;;22.20
67501;BMP180;54349;52.528;19.760;2022-09-02T02:13:24;101321.00;;;22.30
67501;BMP180;54349;52.528;19.760;2022-09-02T02:15:52;101318.60;;;22.30
67501;BMP180;54349;52.528;19.760;2022-09-02T02:18:21;101322.80;;;22.22
67501;BMP180;54349;52.528;19.760;2022-09-02T02:20:49;101325.00;;;22.10
67501;BMP180;54349;52.528;19.760;2022-09-02T02:23:19;101319.00;;;22.10
67501;BMP180;54349;52.528;19.760;2022-09-02T02:25:47;101318.20;;;22.10
67501;BMP180;54349;52.528;19.760;2022-09-02T02:28:15;101323.20;;;22.14
67501;BMP180;54349;52.528;19.760;2022-09-02T02:30:44;101324.20;;;22.20
67501;BMP180;54349;52.528;19.760;2022-09-02T02:33:12;101325.20;;;22.20
67501;BMP180;54349;52.528;19.760;2022-09-02T02:35:42;101322.40;;;22.20
67501;BMP180;54349;52.528;19.760;2022-09-02T02:38:10;101318.80;;;22.22
67501;BMP180;54349;52.528;19.760;2022-09-02T02:40:41;101317.20;;;22.10
67501;BMP180;54349;52.528;19.760;2022-09-02T02:43:10;101316.00;;;22.00
67501;BMP180;54349;52.528;19.760;2022-09-02T02:45:38;101319.60;;;22.00
67501;BMP180;54349;52.528;19.760;2022-09-02T02:48:07;101311.60;;;22.10
67501;BMP180;54349;52.528;19.760;2022-09-02T02:50:35;101311.20;;;22.10
67501;BMP180;54349;52.528;19.760;2022-09-02T02:53:04;101308.80;;;22.10
67501;BMP180;54349;52.528;19.760;2022-09-02T02:55:32;101313.00;;;22.20
67501;BMP180;54349;52.528;19.760;2022-09-02T02:58:01;101312.00;;;22.20
67501;BMP180;54349;52.528;19.760;2022-09-02T03:00:32;101312.80;;;22.20
67501;BMP180;54349;52.528;19.760;2022-09-02T03:03:08;101308.40;;;22.00
67501;BMP180;54349;52.528;19.760;2022-09-02T03:05:38;101307.40;;;21.98
67501;BMP180;54349;52.528;19.760;2022-09-02T03:08:09;101309.00;;;22.00
67501;BMP180;54349;52.528;19.760;2022-09-02T03:10:40;101308.40;;;22.00
67501;BMP180;54349;52.528;19.760;2022-09-02T03:13:10;101307.40;;;22.10
67501;BMP180;54349;52.528;19.760;2022-09-02T03:15:39;101306.00;;;22.10
67501;BMP180;54349;52.528;19.760;2022-09-02T03:18:08;101303.40;;;22.10
67501;BMP180;54349;52.528;19.760;2022-09-02T03:20:39;101305.20;;;22.10
67501;BMP180;54349;52.528;19.760;2022-09-02T03:23:10;101304.40;;;22.10
67501;BMP180;54349;52.528;19.760;2022-09-02T03:25:43;101310.00;;;21.90
67501;BMP180;54349;52.528;19.760;2022-09-02T03:28:17;101313.60;;;21.90
67501;BMP180;54349;52.528;19.760;2022-09-02T03:30:46;101318.20;;;21.94
67501;BMP180;54349;52.528;19.760;2022-09-02T03:33:14;101317.60;;;22.00
67501;BMP180;54349;52.528;19.760;2022-09-02T03:35:45;101320.00;;;22.00
67501;BMP180;54349;52.528;19.760;2022-09-02T03:38:13;101318.40;;;22.00
67501;BMP180;54349;52.528;19.760;2022-09-02T03:40:42;101319.00;;;22.10
67501;BMP180;54349;52.528;19.760;2022-09-02T03:43:11;101319.60;;;22.10
67501;BMP180;54349;52.528;19.760;2022-09-02T03:45:41;101318.00;;;22.10
67501;BMP180;54349;52.528;19.760;2022-09-02T03:48:12;101324.20;;;22.00
67501;BMP180;54349;52.528;19.760;2022-09-02T03:50:44;101319.40;;;21.90
67501;BMP180;54349;52.528;19.760;2022-09-02T03:53:18;101325.80;;;21.90
67501;BMP180;54349;52.528;19.760;2022-09-02T03:55:54;101330.00;;;22.00
67501;BMP180;54349;52.528;19.760;2022-09-02T03:58:24;101333.40;;;22.00
67501;BMP180;54349;52.528;19.760;2022-09-02T04:00:54;101336.20;;;22.00
67501;BMP180;54349;52.528;19.760;2022-09-02T04:03:23;101333.80;;;22.00
67501;BMP180;54349;52.528;19.760;2022-09-02T04:05:52;101333.80;;;22.10
67501;BMP180;54349;52.528;19.760;2022-09-02T04:08:23;101331.00;;;22.10
67501;BMP180;54349;52.528;19.760;2022-09-02T04:10:52;101335.40;;;22.00
67501;BMP180;54349;52.528;19.760;2022-09-02T04:13:21;101337.20;;;21.80
67501;BMP180;54349;52.528;19.760;2022-09-02T04:15:50;101334.80;;;21.80
67501;BMP180;54349;52.528;19.760;2022-09-02T04:18:21;101341.60;;;21.88
67501;BMP180;54349;52.528;19.760;2022-09-02T04:20:50;101344.60;;;21.90
67501;BMP180;54349;52.528;19.760;2022-09-02T04:23:18;101347.00;;;21.90
67501;BMP180;54349;52.528;19.760;2022-09-02T04:25:47;101343.40;;;21.96
67501;BMP180;54349;52.528;19.760;2022-09-02T04:28:16;101344.80;;;22.00
67501;BMP180;54349;52.528;19.760;2022-09-02T04:30:44;101350.20;;;22.00
67501;BMP180;54349;52.528;19.760;2022-09-02T04:33:12;101352.20;;;22.00
67501;BMP180;54349;52.528;19.760;2022-09-02T04:35:44;101352.20;;;22.04
67501;BMP180;54349;52.528;19.760;2022-09-02T04:38:15;101355.20;;;21.96
67501;BMP180;54349;52.528;19.760;2022-09-02T04:40:46;101351.00;;;21.80
67501;BMP180;54349;52.528;19.760;2022-09-02T04:43:16;101352.60;;;21.80
67501;BMP180;54349;52.528;19.760;2022-09-02T04:45:45;101354.00;;;21.90
67501;BMP180;54349;52.528;19.760;2022-09-02T04:48:15;101352.80;;;21.90
67501;BMP180;54349;52.528;19.760;2022-09-02T04:50:45;101352.80;;;21.90
67501;BMP180;54349;52.528;19.760;2022-09-02T04:53:15;101350.20;;;21.98
67501;BMP180;54349;52.528;19.760;2022-09-02T04:55:44;101348.40;;;22.00
67501;BMP180;54349;52.528;19.760;2022-09-02T04:58:14;101347.20;;;22.00
67501;BMP180;54349;52.528;19.760;2022-09-02T05:00:43;101344.00;;;22.00
67501;BMP180;54349;52.528;19.760;2022-09-02T05:03:12;101344.20;;;22.06
67501;BMP180;54349;52.528;19.760;2022-09-02T05:05:42;101346.40;;;22.00
67501;BMP180;54349;52.528;19.760;2022-09-02T05:08:11;101343.40;;;21.80
67501;BMP180;54349;52.528;19.760;2022-09-02T05:10:41;101344.80;;;21.80
67501;BMP180;54349;52.528;19.760;2022-09-02T05:13:09;101346.80;;;21.90
67501;BMP180;54349;52.528;19.760;2022-09-02T05:15:39;101345.40;;;21.90
67501;BMP180;54349;52.528;19.760;2022-09-02T05:18:08;101345.80;;;21.90
67501;BMP180;54349;52.528;19.760;2022-09-02T05:20:39;101349.40;;;22.00
67501;BMP180;54349;52.528;19.760;2022-09-02T05:23:09;101346.80;;;22.00
67501;BMP180;54349;52.528;19.760;2022-09-02T05:25:40;101347.00;;;22.00
67501;BMP180;54349;52.528;19.760;2022-09-02T05:28:09;101348.60;;;22.00
67501;BMP180;54349;52.528;19.760;2022-09-02T05:30:39;101349.40;;;22.02
67501;BMP180;54349;52.528;19.760;2022-09-02T05:33:10;101355.40;;;21.96
67501;BMP180;54349;52.528;19.760;2022-09-02T05:35:49;101354.00;;;21.80
67501;BMP180;54349;52.528;19.760;2022-09-02T05:38:20;101353.20;;;21.80
67501;BMP180;54349;52.528;19.760;2022-09-02T05:40:48;101359.00;;;21.90
67501;BMP180;54349;52.528;19.760;2022-09-02T05:43:18;101357.40;;;21.90
67501;BMP180;54349;52.528;19.760;2022-09-02T05:45:46;101358.60;;;21.90
67501;BMP180;54349;52.528;19.760;2022-09-02T05:48:16;101362.40;;;21.94
67501;BMP180;54349;52.528;19.760;2022-09-02T05:51:04;101360.60;;;22.00
67501;BMP180;54349;52.528;19.760;2022-09-02T05:53:34;101360.40;;;22.00
67501;BMP180;54349;52.528;19.760;2022-09-02T05:56:06;101362.80;;;22.00
67501;BMP180;54349;52.528;19.760;2022-09-02T05:58:34;101361.40;;;22.00
67501;BMP180;54349;52.528;19.760;2022-09-02T06:01:14;101357.80;;;21.90
67501;BMP180;54349;52.528;19.760;2022-09-02T06:03:43;101359.20;;;21.80
67501;BMP180;54349;52.528;19.760;2022-09-02T06:06:12;101365.40;;;21.80
67501;BMP180;54349;52.528;19.760;2022-09-02T06:08:41;101370.60;;;21.90
67501;BMP180;54349;52.528;19.760;2022-09-02T06:11:11;101367.60;;;21.90
67501;BMP180;54349;52.528;19.760;2022-09-02T06:13:42;101371.80;;;21.90
67501;BMP180;54349;52.528;19.760;2022-09-02T06:16:17;101371.60;;;21.96
67501;BMP180;54349;52.528;19.760;2022-09-02T06:18:48;101375.60;;;22.00
67501;BMP180;54349;52.528;19.760;2022-09-02T06:21:17;101378.40;;;22.00
67501;BMP180;54349;52.528;19.760;2022-09-02T06:23:48;101376.60;;;22.00
67501;BMP180;54349;52.528;19.760;2022-09-02T06:26:17;101383.80;;;22.00
67501;BMP180;54349;52.528;19.760;2022-09-02T06:28:46;101378.00;;;21.80
67501;BMP180;54349;52.528;19.760;2022-09-02T06:31:20;101378.40;;;21.80
67501;BMP180;54349;52.528;19.760;2022-09-02T06:33:55;101385.40;;;21.86
67501;BMP180;54349;52.528;19.760;2022-09-02T06:36:27;101382.00;;;21.90
67501;BMP180;54349;52.528;19.760;2022-09-02T06:38:58;101382.60;;;21.90
67501;BMP180;54349;52.528;19.760;2022-09-02T06:41:31;101380.80;;;21.90
67501;BMP180;54349;52.528;19.760;2022-09-02T06:44:04;101378.80;;;22.00
67501;BMP180;54349;52.528;19.760;2022-09-02T06:46:43;101377.20;;;22.00
67501;BMP180;54349;52.528;19.760;2022-09-02T06:49:14;101377.40;;;22.00
67501;BMP180;54349;52.528;19.760;2022-09-02T06:51:48;101376.80;;;22.00
67501;BMP180;54349;52.528;19.760;2022-09-02T06:54:19;101376.40;;;21.80
67501;BMP180;54349;52.528;19.760;2022-09-02T06:56:50;101375.60;;;21.80
67501;BMP180;54349;52.528;19.760;2022-09-02T06:59:22;101377.20;;;21.90
67501;BMP180;54349;52.528;19.760;2022-09-02T07:01:56;101377.20;;;21.90
67501;BMP180;54349;52.528;19.760;2022-09-02T07:04:26;101381.60;;;21.90
67501;BMP180;54349;52.528;19.760;2022-09-02T07:07:15;101380.20;;;22.00
67501;BMP180;54349;52.528;19.760;2022-09-02T07:09:50;101379.40;;;22.00
67501;BMP180;54349;52.528;19.760;2022-09-02T07:12:18;101377.80;;;22.00
67501;BMP180;54349;52.528;19.760;2022-09-02T07:14:51;101382.40;;;22.00
67501;BMP180;54349;52.528;19.760;2022-09-02T07:17:25;101382.80;;;22.00
67501;BMP180;54349;52.528;19.760;2022-09-02T07:19:58;101381.80;;;21.80
67501;BMP180;54349;52.528;19.760;2022-09-02T07:22:29;101388.00;;;21.80
67501;BMP180;54349;52.528;19.760;2022-09-02T07:25:00;101386.80;;;21.90
67501;BMP180;54349;52.528;19.760;2022-09-02T07:27:29;101384.00;;;21.90
67501;BMP180;54349;52.528;19.760;2022-09-02T07:29:58;101386.40;;;21.90
67501;BMP180;54349;52.528;19.760;2022-09-02T07:32:27;101392.40;;;22.00
67501;BMP180;54349;52.528;19.760;2022-09-02T07:34:55;101391.00;;;22.00
67501;BMP180;54349;52.528;19.760;2022-09-02T07:37:23;101390.80;;;22.00
67501;BMP180;54349;52.528;19.760;2022-09-02T07:39:52;101389.60;;;22.10
67501;BMP180;54349;52.528;19.760;2022-09-02T07:42:22;101391.20;;;21.90
67501;BMP180;54349;52.528;19.760;2022-09-02T07:44:51;101387.60;;;21.90
67501;BMP180;54349;52.528;19.760;2022-09-02T07:47:20;101389.20;;;21.90
67501;BMP180;54349;52.528;19.760;2022-09-02T07:49:49;101393.60;;;21.90
67501;BMP180;54349;52.528;19.760;2022-09-02T07:52:38;101392.80;;;21.98
67501;BMP180;54349;52.528;19.760;2022-09-02T07:55:08;101393.00;;;22.00
67501;BMP180;54349;52.528;19.760;2022-09-02T07:57:42;101394.40;;;22.00
67501;BMP180;54349;52.528;19.760;2022-09-02T08:00:12;101395.40;;;22.00
67501;BMP180;54349;52.528;19.760;2022-09-02T08:02:41;101397.60;;;22.06
67501;BMP180;54349;52.528;19.760;2022-09-02T08:05:14;101393.00;;;21.90
67501;BMP180;54349;52.528;19.760;2022-09-02T08:07:42;101392.00;;;21.90
67501;BMP180;54349;52.528;19.760;2022-09-02T08:10:11;101393.40;;;21.90
67501;BMP180;54349;52.528;19.760;2022-09-02T08:12:42;101393.80;;;21.90
67501;BMP180;54349;52.528;19.760;2022-09-02T08:15:12;101390.00;;;22.00
67501;BMP180;54349;52.528;19.760;2022-09-02T08:17:40;101388.20;;;22.00
67501;BMP180;54349;52.528;19.760;2022-09-02T08:20:12;101390.00;;;22.00
67501;BMP180;54349;52.528;19.760;2022-09-02T08:22:41;101388.20;;;22.00
67501;BMP180;54349;52.528;19.760;2022-09-02T08:25:14;101390.20;;;22.10
67501;BMP180;54349;52.528;19.760;2022-09-02T08:27:45;101388.60;;;21.90
67501;BMP180;54349;52.528;19.760;2022-09-02T08:30:13;101393.40;;;21.90
67501;BMP180;54349;52.528;19.760;2022-09-02T08:32:41;101388.60;;;21.90
67501;BMP180;54349;52.528;19.760;2022-09-02T08:35:09;101391.40;;;21.90
67501;BMP180;54349;52.528;19.760;2022-09-02T08:37:38;101392.80;;;22.00
67501;BMP180;54349;52.528;19.760;2022-09-02T08:40:13;101388.80;;;22.00
67501;BMP180;54349;52.528;19.760;2022-09-02T08:42:47;101391.60;;;22.02
67501;BMP180;54349;52.528;19.760;2022-09-02T08:48:33;101387.60;;;22.00
67501;BMP180;54349;52.528;19.760;2022-09-02T08:51:07;101385.80;;;21.90
67501;BMP180;54349;52.528;19.760;2022-09-02T08:53:55;101386.60;;;21.90
67501;BMP180;54349;52.528;19.760;2022-09-02T08:56:25;101387.20;;;22.00
67501;BMP180;54349;52.528;19.760;2022-09-02T08:58:55;101385.40;;;22.00
67501;BMP180;54349;52.528;19.760;2022-09-02T09:15:02;101378.40;;;21.90
67501;BMP180;54349;52.528;19.760;2022-09-02T09:17:59;101375.60;;;22.00
67501;BMP180;54349;52.528;19.760;2022-09-02T09:20:38;101372.00;;;22.00
67501;BMP180;54349;52.528;19.760;2022-09-02T09:23:35;101367.40;;;22.10
67501;BMP180;54349;52.528;19.760;2022-09-02T09:26:17;101368.80;;;22.10
67501;BMP180;54349;52.528;19.760;2022-09-02T09:28:48;101366.40;;;22.10
67501;BMP180;54349;52.528;19.760;2022-09-02T09:31:20;101369.80;;;22.00
67501;BMP180;54349;52.528;19.760;2022-09-02T09:34:11;101370.60;;;22.00
67501;BMP180;54349;52.528;19.760;2022-09-02T09:39:28;101365.40;;;22.10
67501;BMP180;54349;52.528;19.760;2022-09-02T09:42:13;101361.20;;;22.10
67501;BMP180;54349;52.528;19.760;2022-09-02T09:44:45;101364.20;;;22.12
67501;BMP180;54349;52.528;19.760;2022-09-02T09:47:17;101362.20;;;22.20
67501;BMP180;54349;52.528;19.760;2022-09-02T09:49:48;101361.00;;;22.02
67501;BMP180;54349;52.528;19.760;2022-09-02T09:52:29;101358.80;;;22.00
67501;BMP180;54349;52.528;19.760;2022-09-02T09:57:40;101355.80;;;22.10
67501;BMP180;54349;52.528;19.760;2022-09-02T10:02:56;101355.80;;;22.20
67501;BMP180;54349;52.528;19.760;2022-09-02T10:11:05;101340.80;;;22.10
67501;BMP180;54349;52.528;19.760;2022-09-02T10:13:46;101339.20;;;22.12
67501;BMP180;54349;52.528;19.760;2022-09-02T10:27:35;101343.80;;;22.16
67501;BMP180;54349;52.528;19.760;2022-09-02T10:30:24;101339.80;;;22.20
67501;BMP180;54349;52.528;19.760;2022-09-02T10:33:46;101343.20;;;22.20
67501;BMP180;54349;52.528;19.760;2022-09-02T10:36:53;101341.20;;;22.30
67501;BMP180;54349;52.528;19.760;2022-09-02T10:45:44;101335.20;;;22.20
67501;BMP180;54349;52.528;19.760;2022-09-02T10:57:05;101330.40;;;22.50
67501;BMP180;54349;52.528;19.760;2022-09-02T10:59:55;101324.60;;;22.38
67501;BMP180;54349;52.528;19.760;2022-09-02T11:02:40;101327.00;;;22.30
67501;BMP180;54349;52.528;19.760;2022-09-02T11:05:23;101328.60;;;22.40
67501;BMP180;54349;52.528;19.760;2022-09-02T11:11:09;101336.00;;;22.50
67501;BMP180;54349;52.528;19.760;2022-09-02T11:16:52;101329.20;;;22.50
67501;BMP180;54349;52.528;19.760;2022-09-02T11:19:44;101333.20;;;22.50
67501;BMP180;54349;52.528;19.760;2022-09-02T11:22:44;101331.20;;;22.60
67501;BMP180;54349;52.528;19.760;2022-09-02T11:25:31;101332.80;;;22.70
67501;BMP180;54349;52.528;19.760;2022-09-02T11:31:20;101321.40;;;22.60
67501;BMP180;54349;52.528;19.760;2022-09-02T11:34:20;101320.60;;;22.70
67501;BMP180;54349;52.528;19.760;2022-09-02T11:36:52;101313.80;;;22.80
67501;BMP180;54349;52.528;19.760;2022-09-02T11:39:38;101311.20;;;22.80
67501;BMP180;54349;52.528;19.760;2022-09-02T11:49:33;101303.60;;;22.72
67501;BMP180;54349;52.528;19.760;2022-09-02T11:53:00;101299.00;;;22.88
67501;BMP180;54349;52.528;19.760;2022-09-02T11:55:21;101304.40;;;22.84
67501;BMP180;54349;52.528;19.760;2022-09-02T11:57:55;101302.20;;;22.70
67501;BMP180;54349;52.528;19.760;2022-09-02T12:00:32;101296.80;;;22.70
67501;BMP180;54349;52.528;19.760;2022-09-02T12:06:06;101289.40;;;22.90
67501;BMP180;54349;52.528;19.760;2022-09-02T12:11:10;101279.40;;;22.88
67501;BMP180;54349;52.528;19.760;2022-09-02T12:13:56;101281.40;;;22.78
67501;BMP180;54349;52.528;19.760;2022-09-02T12:19:24;101282.20;;;22.90
67501;BMP180;54349;52.528;19.760;2022-09-02T12:24:55;101278.80;;;23.10
67501;BMP180;54349;52.528;19.760;2022-09-02T12:27:35;101274.60;;;22.98
67501;BMP180;54349;52.528;19.760;2022-09-02T12:30:10;101273.20;;;22.82
67501;BMP180;54349;52.528;19.760;2022-09-02T12:54:34;101266.60;;;23.20
67501;BMP180;54349;52.528;19.760;2022-09-02T12:57:08;101267.80;;;23.00
67501;BMP180;54349;52.528;19.760;2022-09-02T12:59:39;101267.20;;;22.80
67501;BMP180;54349;52.528;19.760;2022-09-02T13:02:38;101267.20;;;22.90
67501;BMP180;54349;52.528;19.760;2022-09-02T13:21:05;101257.60;;;23.20
67501;BMP180;54349;52.528;19.760;2022-09-02T13:24:15;101258.40;;;23.30
67501;BMP180;54349;52.528;19.760;2022-09-02T13:30:05;101253.60;;;22.90
67501;BMP180;54349;52.528;19.760;2022-09-02T13:32:35;101254.20;;;22.80
67501;BMP180;54349;52.528;19.760;2022-09-02T13:35:08;101250.00;;;22.80
67501;BMP180;54349;52.528;19.760;2022-09-02T13:37:59;101240.60;;;23.00
67501;BMP180;54349;52.528;19.760;2022-09-02T13:40:35;101246.00;;;23.10
67501;BMP180;54349;52.528;19.760;2022-09-02T13:43:20;101242.20;;;23.10
67501;BMP180;54349;52.528;19.760;2022-09-02T13:45:51;101242.60;;;22.90
67501;BMP180;54349;52.528;19.760;2022-09-02T13:48:30;101245.60;;;22.80
67501;BMP180;54349;52.528;19.760;2022-09-02T13:51:12;101242.80;;;22.90
67501;BMP180;54349;52.528;19.760;2022-09-02T13:53:46;101239.60;;;23.00
67501;BMP180;54349;52.528;19.760;2022-09-02T13:56:36;101240.20;;;23.16
67501;BMP180;54349;52.528;19.760;2022-09-02T13:59:04;101236.20;;;23.10
67501;BMP180;54349;52.528;19.760;2022-09-02T14:01:36;101226.00;;;22.92
67501;BMP180;54349;52.528;19.760;2022-09-02T14:04:11;101225.60;;;22.90
67501;BMP180;54349;52.528;19.760;2022-09-02T14:06:45;101224.40;;;22.94
67501;BMP180;54349;52.528;19.760;2022-09-02T14:09:28;101221.40;;;23.08
67501;BMP180;54349;52.528;19.760;2022-09-02T14:11:59;101215.00;;;23.20
67501;BMP180;54349;52.528;19.760;2022-09-02T14:14:28;101206.80;;;23.20
67501;BMP180;54349;52.528;19.760;2022-09-02T14:17:24;101206.20;;;23.02
67501;BMP180;54349;52.528;19.760;2022-09-02T14:20:19;101204.00;;;22.90
67501;BMP180;54349;52.528;19.760;2022-09-02T14:22:57;101200.60;;;22.92
67501;BMP180;54349;52.528;19.760;2022-09-02T14:25:35;101205.20;;;23.10
67501;BMP180;54349;52.528;19.760;2022-09-02T14:28:22;101208.00;;;23.20
67501;BMP180;54349;52.528;19.760;2022-09-02T14:33:44;101205.00;;;23.02
67501;BMP180;54349;52.528;19.760;2022-09-02T14:38:53;101207.00;;;23.00
67501;BMP180;54349;52.528;19.760;2022-09-02T14:41:31;101208.40;;;23.10
67501;BMP180;54349;52.528;19.760;2022-09-02T14:44:11;101212.00;;;23.20
67501;BMP180;54349;52.528;19.760;2022-09-02T14:46:48;101210.00;;;23.16
67501;BMP180;54349;52.528;19.760;2022-09-02T14:49:31;101209.60;;;22.98
67501;BMP180;54349;52.528;19.760;2022-09-02T14:52:16;101209.40;;;23.00
67501;BMP180;54349;52.528;19.760;2022-09-02T14:54:48;101213.00;;;23.08
67501;BMP180;54349;52.528;19.760;2022-09-02T15:00:11;101207.60;;;23.20
67501;BMP180;54349;52.528;19.760;2022-09-02T15:02:44;101208.60;;;23.00
67501;BMP180;54349;52.528;19.760;2022-09-02T15:05:15;101208.00;;;23.00
67501;BMP180;54349;52.528;19.760;2022-09-02T15:07:43;101205.00;;;23.10
67501;BMP180;54349;52.528;19.760;2022-09-02T15:10:13;101204.40;;;23.20
67501;BMP180;54349;52.528;19.760;2022-09-02T15:12:53;101204.80;;;23.30
67501;BMP180;54349;52.528;19.760;2022-09-02T15:15:22;101202.80;;;23.20
67501;BMP180;54349;52.528;19.760;2022-09-02T15:17:52;101201.40;;;23.04
67501;BMP180;54349;52.528;19.760;2022-09-02T15:20:21;101193.80;;;22.90
67501;BMP180;54349;52.528;19.760;2022-09-02T15:22:50;101190.00;;;22.94
67501;BMP180;54349;52.528;19.760;2022-09-02T15:25:20;101191.60;;;23.08
67501;BMP180;54349;52.528;19.760;2022-09-02T15:27:48;101189.00;;;23.20
67501;BMP180;54349;52.528;19.760;2022-09-02T15:30:17;101192.20;;;23.30
67501;BMP180;54349;52.528;19.760;2022-09-02T15:32:45;101186.80;;;23.20
67501;BMP180;54349;52.528;19.760;2022-09-02T15:35:13;101188.20;;;23.00
67501;BMP180;54349;52.528;19.760;2022-09-02T15:37:41;101187.20;;;23.00
67501;BMP180;54349;52.528;19.760;2022-09-02T15:40:10;101187.60;;;23.10
67501;BMP180;54349;52.528;19.760;2022-09-02T15:42:39;101189.40;;;23.20
67501;BMP180;54349;52.528;19.760;2022-09-02T15:45:08;101189.00;;;23.30
67501;BMP180;54349;52.528;19.760;2022-09-02T15:47:37;101184.80;;;23.22
67501;BMP180;54349;52.528;19.760;2022-09-02T15:50:07;101186.60;;;23.04
67501;BMP180;54349;52.528;19.760;2022-09-02T15:52:36;101189.60;;;23.04
67501;BMP180;54349;52.528;19.760;2022-09-02T15:55:04;101185.60;;;23.12
67501;BMP180;54349;52.528;19.760;2022-09-02T15:57:33;101192.20;;;23.28
67501;BMP180;54349;52.528;19.760;2022-09-02T16:00:03;101193.00;;;23.32
67501;BMP180;54349;52.528;19.760;2022-09-02T16:02:38;101192.00;;;23.20
67501;BMP180;54349;52.528;19.760;2022-09-02T16:05:07;101194.60;;;23.00
67501;BMP180;54349;52.528;19.760;2022-09-02T16:07:38;101191.60;;;22.96
67501;BMP180;54349;52.528;19.760;2022-09-02T16:10:08;101192.20;;;23.04
67501;BMP180;54349;52.528;19.760;2022-09-02T16:12:36;101190.40;;;23.14
67501;BMP180;54349;52.528;19.760;2022-09-02T16:15:06;101189.40;;;23.26
67501;BMP180;54349;52.528;19.760;2022-09-02T16:17:34;101186.80;;;23.18
67501;BMP180;54349;52.528;19.760;2022-09-02T16:20:04;101181.40;;;22.96
67501;BMP180;54349;52.528;19.760;2022-09-02T16:22:32;101176.00;;;22.90
67501;BMP180;54349;52.528;19.760;2022-09-02T16:25:01;101181.20;;;23.00
67501;BMP180;54349;52.528;19.760;2022-09-02T16:27:30;101181.80;;;23.10
67501;BMP180;54349;52.528;19.760;2022-09-02T16:30:18;101180.00;;;23.20
67501;BMP180;54349;52.528;19.760;2022-09-02T16:32:46;101178.40;;;23.10